createdAt,value
2023-08-22T00:01:28.215Z,101074.97
2023-08-22T00:03:54.796Z,101068.06
2023-08-22T00:06:21.229Z,101061.25
2023-08-22T00:08:47.617Z,101054.78
2023-08-22T00:11:14.003Z,101054.34
2023-08-22T00:13:40.350Z,101059.03
2023-08-22T00:16:06.800Z,101075.19
2023-08-22T00:18:33.200Z,101090.00
2023-08-22T00:20:59.569Z,101090.19
2023-08-22T00:23:25.948Z,101073.22
2023-08-22T00:25:52.372Z,101064.38
2023-08-22T00:28:18.726Z,101068.38
2023-08-22T00:30:45.160Z,101075.97
2023-08-22T00:33:11.609Z,101079.88
2023-08-22T00:35:37.987Z,101073.22
2023-08-22T00:38:04.439Z,101071.63
2023-08-22T00:40:30.867Z,101089.06
2023-08-22T00:42:57.859Z,101086.31
2023-08-22T00:45:24.301Z,101070.66
2023-08-22T00:47:51.258Z,101072.94
2023-08-22T00:50:17.848Z,101064.38
2023-08-22T00:52:44.220Z,101059.50
2023-08-22T00:55:10.757Z,101060.31
2023-08-22T00:57:38.221Z,101058.09
2023-08-22T01:00:05.565Z,101054.69
2023-08-22T01:02:32.821Z,101060.31
2023-08-22T01:04:59.765Z,101053.72
2023-08-22T01:07:38.252Z,101046.94
2023-08-22T01:10:22.155Z,101042.91
2023-08-22T01:12:52.759Z,101051.28
2023-08-22T01:15:29.697Z,101031.59
2023-08-22T01:17:58.509Z,101029.03
2023-08-22T01:20:26.026Z,101022.06
2023-08-22T01:22:52.554Z,101022.25
2023-08-22T01:25:18.959Z,101023.34
2023-08-22T01:27:56.108Z,101020.16
2023-08-22T01:30:42.808Z,101019.66
2023-08-22T01:33:14.264Z,101016.44
2023-08-22T01:35:44.596Z,101018.69
2023-08-22T01:38:11.899Z,101019.34
2023-08-22T01:40:38.901Z,101010.00
2023-08-22T01:43:05.487Z,101002.72
2023-08-22T01:45:31.880Z,100998.38
2023-08-22T01:47:58.253Z,100999.38
2023-08-22T01:50:24.642Z,100997.28
2023-08-22T01:52:51.001Z,101000.81
2023-08-22T01:55:17.530Z,100992.59
2023-08-22T01:57:43.869Z,100996.00
2023-08-22T02:00:10.727Z,101007.28
2023-08-22T02:02:37.361Z,100993.75
2023-08-22T02:05:04.244Z,100999.06
2023-08-22T02:07:33.137Z,100992.78
2023-08-22T02:09:59.533Z,101002.94
2023-08-22T02:12:26.054Z,100998.94
2023-08-22T02:14:52.497Z,100989.06
2023-08-22T02:17:19.047Z,100991.66
2023-08-22T02:19:45.399Z,100987.63
2023-08-22T02:22:11.928Z,100982.63
2023-08-22T02:24:38.270Z,100986.19
2023-08-22T02:27:04.698Z,100990.06
2023-08-22T02:29:31.721Z,100986.03
2023-08-22T02:31:58.209Z,100991.00
2023-08-22T02:34:26.117Z,100991.66
2023-08-22T02:36:52.511Z,100989.22
2023-08-22T02:39:18.959Z,100992.47
2023-08-22T02:41:45.328Z,100988.28
2023-08-22T02:44:11.694Z,100987.31
2023-08-22T02:46:38.050Z,100986.19
2023-08-22T02:49:04.430Z,100993.59
2023-08-22T02:51:30.892Z,100986.34
2023-08-22T02:53:57.239Z,100985.53
2023-08-22T02:56:23.610Z,100986.03
2023-08-22T02:58:49.997Z,100974.56
2023-08-22T03:01:16.439Z,100976.13
2023-08-22T03:03:42.838Z,100986.66
2023-08-22T03:06:09.192Z,101004.56
2023-08-22T03:08:35.599Z,101007.59
2023-08-22T03:11:02.316Z,100995.66
2023-08-22T03:13:29.288Z,100993.72
2023-08-22T03:15:56.076Z,100990.19
2023-08-22T03:18:22.833Z,100985.50
2023-08-22T03:20:49.269Z,100983.91
2023-08-22T03:23:15.605Z,100988.13
2023-08-22T03:25:41.982Z,100983.94
2023-08-22T03:28:08.343Z,100985.53
2023-08-22T03:30:34.712Z,100995.69
2023-08-22T03:33:01.109Z,101003.25
2023-08-22T03:35:27.536Z,100998.28
2023-08-22T03:37:53.883Z,101000.69
2023-08-22T03:40:20.261Z,100993.25
2023-08-22T03:42:46.669Z,101001.97
2023-08-22T03:45:13.022Z,100986.66
2023-08-22T03:47:39.745Z,100997.25
2023-08-22T03:50:06.786Z,100983.88
2023-08-22T03:52:33.181Z,100978.41
2023-08-22T03:54:59.643Z,100969.66
2023-08-22T03:57:26.005Z,100977.41
2023-08-22T03:59:52.392Z,100966.59
2023-08-22T04:02:19.744Z,100977.78
2023-08-22T04:04:46.157Z,100976.34
2023-08-22T04:07:12.512Z,100972.09
2023-08-22T04:09:38.919Z,100975.97
2023-08-22T04:12:05.480Z,100966.28
2023-08-22T04:14:31.864Z,100972.31
2023-08-22T04:16:58.305Z,100970.03
2023-08-22T04:19:24.764Z,100961.47
2023-08-22T04:21:51.174Z,100969.69
2023-08-22T04:24:17.557Z,100967.25
2023-08-22T04:26:44.374Z,100973.38
2023-08-22T04:29:11.371Z,100966.91
2023-08-22T04:31:37.720Z,100970.31
2023-08-22T04:34:04.134Z,100972.91
2023-08-22T04:36:30.563Z,100972.91
2023-08-22T04:38:56.959Z,100978.84
2023-08-22T04:41:23.334Z,100972.72
2023-08-22T04:43:49.699Z,100971.44
2023-08-22T04:46:16.938Z,100964.97
2023-08-22T04:48:43.532Z,100964.47
2023-08-22T04:51:09.893Z,100960.13
2023-08-22T04:53:36.283Z,100956.22
2023-08-22T04:56:02.629Z,100964.28
2023-08-22T04:58:29.035Z,100969.13
2023-08-22T05:00:55.381Z,100969.63
2023-08-22T05:03:21.771Z,100969.75
2023-08-22T05:05:48.215Z,100967.75
2023-08-22T05:08:14.674Z,100966.91
2023-08-22T05:10:41.044Z,100966.47
2023-08-22T05:13:07.391Z,100963.47
2023-08-22T05:15:34.217Z,100973.00
2023-08-22T05:18:01.653Z,100975.25
2023-08-22T05:20:28.153Z,100974.78
2023-08-22T05:22:54.539Z,100971.38
2023-08-22T05:25:20.976Z,100970.19
2023-08-22T05:27:47.350Z,100975.47
2023-08-22T05:30:13.784Z,100973.28
2023-08-22T05:32:40.179Z,100970.06
2023-08-22T05:35:07.238Z,100965.22
2023-08-22T05:37:33.586Z,100977.16
2023-08-22T05:39:59.964Z,100973.28
2023-08-22T05:42:26.455Z,100973.16
2023-08-22T05:44:52.846Z,100978.53
2023-08-22T05:47:19.228Z,100976.00
2023-08-22T05:49:45.674Z,100970.69
2023-08-22T05:52:12.067Z,100971.88
2023-08-22T05:54:38.430Z,100977.00
2023-08-22T05:57:04.894Z,100979.66
2023-08-22T05:59:31.246Z,100978.50
2023-08-22T06:01:58.902Z,100980.47
2023-08-22T06:04:25.668Z,100988.94
2023-08-22T06:06:52.076Z,100992.38
2023-08-22T06:09:18.573Z,100983.53
2023-08-22T06:11:44.918Z,100990.53
2023-08-22T06:14:11.312Z,100979.72
2023-08-22T06:16:37.675Z,100990.78
2023-08-22T06:19:04.046Z,100992.59
2023-08-22T06:21:30.478Z,100991.84
2023-08-22T06:23:56.886Z,101000.91
2023-08-22T06:26:23.307Z,100998.22
2023-08-22T06:28:49.658Z,100998.72
2023-08-22T06:31:16.081Z,101003.53
2023-08-22T06:33:42.500Z,101001.22
2023-08-22T06:36:08.941Z,100996.88
2023-08-22T06:38:35.343Z,100994.78
2023-08-22T06:41:08.281Z,100983.31
2023-08-22T06:43:35.153Z,100987.16
2023-08-22T06:46:01.746Z,100992.22
2023-08-22T06:48:40.918Z,100994.59
2023-08-22T06:51:07.950Z,100993.66
2023-08-22T06:53:34.388Z,100987.88
2023-08-22T06:56:00.770Z,100986.22
2023-08-22T06:58:27.150Z,100989.69
2023-08-22T07:00:53.595Z,100979.38
2023-08-22T07:03:20.163Z,100981.75
2023-08-22T07:05:51.034Z,100987.13
2023-08-22T07:08:17.392Z,100982.75
2023-08-22T07:10:43.766Z,100976.94
2023-08-22T07:13:10.149Z,100979.31
2023-08-22T07:15:36.508Z,100983.03
2023-08-22T07:18:03.013Z,100985.91
2023-08-22T07:20:29.410Z,100985.88
2023-08-22T07:22:55.786Z,100976.09
2023-08-22T07:25:22.139Z,100977.47
2023-08-22T07:27:48.496Z,100981.19
2023-08-22T07:30:14.935Z,100989.53
2023-08-22T07:32:41.580Z,100984.81
2023-08-22T07:35:08.629Z,100991.31
2023-08-22T07:37:35.156Z,100990.25
2023-08-22T07:40:01.517Z,100992.69
2023-08-22T07:42:27.884Z,100985.94
2023-08-22T07:44:54.315Z,100982.13
2023-08-22T07:47:20.676Z,100978.25
2023-08-22T07:49:47.010Z,100977.69
2023-08-22T07:52:13.377Z,100983.00
2023-08-22T07:54:39.734Z,100978.56
2023-08-22T07:57:17.893Z,100979.44
2023-08-22T07:59:45.127Z,100978.56
2023-08-22T08:02:11.596Z,100986.94
2023-08-22T08:04:38.029Z,100988.56
2023-08-22T08:07:04.534Z,100990.09
2023-08-22T08:09:35.559Z,100985.00
2023-08-22T08:12:02.399Z,100996.06
2023-08-22T08:14:28.765Z,100989.41
2023-08-22T08:16:55.206Z,100993.38
2023-08-22T08:19:23.066Z,100997.75
2023-08-22T08:21:50.700Z,100989.78
2023-08-22T08:24:17.034Z,100987.41
2023-08-22T08:26:43.389Z,100991.41
2023-08-22T08:29:09.758Z,100996.97
2023-08-22T08:31:36.112Z,100999.34
2023-08-22T08:34:05.440Z,100997.13
2023-08-22T08:36:32.092Z,101004.06
2023-08-22T08:38:58.437Z,101001.00
2023-08-22T08:41:25.048Z,101005.06
2023-08-22T08:43:51.837Z,101005.09
2023-08-22T08:46:18.653Z,101004.44
2023-08-22T08:48:46.509Z,100999.81
2023-08-22T08:51:12.964Z,100999.25
2023-08-22T08:53:40.891Z,100999.69
2023-08-22T08:56:07.501Z,100999.09
2023-08-22T08:58:33.894Z,101007.13
2023-08-22T09:01:00.638Z,101008.72
2023-08-22T09:03:27.082Z,101006.66
2023-08-22T09:05:53.420Z,101006.94
2023-08-22T09:08:21.633Z,101008.25
2023-08-22T09:10:52.337Z,101014.72
2023-08-22T09:13:26.189Z,101010.22
2023-08-22T09:15:59.145Z,101007.28
2023-08-22T09:18:25.603Z,101008.50
2023-08-22T09:20:51.962Z,100995.53
2023-08-22T09:23:36.551Z,101004.44
2023-08-22T09:26:02.889Z,101001.84
2023-08-22T09:28:29.356Z,101014.31
2023-08-22T09:30:55.712Z,101011.94
2023-08-22T09:33:22.150Z,101011.00
2023-08-22T09:35:48.522Z,101004.69
2023-08-22T09:38:14.986Z,101011.03
2023-08-22T09:40:52.940Z,101013.94
2023-08-22T09:43:20.442Z,101012.00
2023-08-22T09:45:48.660Z,101009.22
2023-08-22T09:48:19.857Z,101015.19
2023-08-22T09:50:50.457Z,101009.72
2023-08-22T09:53:18.742Z,101006.13
2023-08-22T09:55:46.050Z,101000.84
2023-08-22T09:58:12.786Z,101007.84
2023-08-22T10:00:39.396Z,101008.75
2023-08-22T10:03:07.264Z,101012.13
2023-08-22T10:05:34.538Z,101013.72
2023-08-22T10:08:01.059Z,101015.28
2023-08-22T10:10:28.261Z,101011.72
2023-08-22T10:12:56.189Z,101016.91
2023-08-22T10:15:22.776Z,101012.72
2023-08-22T10:17:50.371Z,101012.53
2023-08-22T10:20:16.921Z,101021.66
2023-08-22T10:22:43.420Z,101010.59
2023-08-22T10:25:09.949Z,101016.94
2023-08-22T10:27:38.441Z,101011.78
2023-08-22T10:30:13.936Z,101000.69
2023-08-22T10:32:41.369Z,101007.31
2023-08-22T10:35:21.648Z,101002.59
2023-08-22T10:37:49.814Z,100995.41
2023-08-22T10:40:27.925Z,100995.44
2023-08-22T10:43:35.988Z,100995.38
2023-08-22T10:46:06.180Z,100990.97
2023-08-22T10:48:33.773Z,100999.72
2023-08-22T10:51:08.059Z,101004.19
2023-08-22T10:53:45.379Z,101000.59
2023-08-22T10:56:23.138Z,100995.44
2023-08-22T10:59:00.404Z,100997.41
2023-08-22T11:01:27.474Z,100999.53
2023-08-22T11:03:54.409Z,100997.84
2023-08-22T11:06:23.913Z,101003.13
2023-08-22T11:08:51.418Z,100997.75
2023-08-22T11:11:19.904Z,100990.50
2023-08-22T11:13:46.454Z,100996.56
2023-08-22T11:16:15.892Z,100993.41
2023-08-22T11:18:43.564Z,100993.41
2023-08-22T11:21:10.586Z,100997.00
2023-08-22T11:23:38.540Z,100995.19
2023-08-22T11:26:08.499Z,100998.75
2023-08-22T11:28:37.119Z,100998.84
2023-08-22T11:31:04.886Z,100990.34
2023-08-22T11:33:35.704Z,100993.25
2023-08-22T11:36:02.120Z,100987.38
2023-08-22T11:38:28.510Z,101005.41
2023-08-22T11:40:55.017Z,100998.97
2023-08-22T11:43:21.391Z,101000.22
2023-08-22T11:45:47.781Z,100990.63
2023-08-22T11:48:15.433Z,100994.59
2023-08-22T11:50:43.046Z,101005.72
2023-08-22T11:53:11.971Z,101001.34
2023-08-22T11:55:46.607Z,101002.81
2023-08-22T11:58:15.902Z,101003.72
2023-08-22T12:00:42.983Z,100998.25
2023-08-22T12:03:09.389Z,101004.31
2023-08-22T12:05:45.154Z,101003.81
2023-08-22T12:08:11.500Z,101004.75
2023-08-22T12:10:41.475Z,100996.03
2023-08-22T12:13:09.070Z,101002.13
2023-08-22T12:15:36.242Z,101004.97
2023-08-22T12:18:03.245Z,101000.06
2023-08-22T12:20:29.656Z,101000.84
2023-08-22T12:22:56.023Z,100994.84
2023-08-22T12:25:22.419Z,100986.47
2023-08-22T12:27:48.766Z,100988.75
2023-08-22T12:30:15.192Z,100983.22
2023-08-22T12:32:45.700Z,100982.56
2023-08-22T12:35:13.261Z,100985.72
2023-08-22T12:37:40.577Z,100984.88
2023-08-22T12:40:10.007Z,100993.97
2023-08-22T12:42:36.357Z,100994.41
2023-08-22T12:45:02.822Z,100989.94
2023-08-22T12:47:29.188Z,100997.69
2023-08-22T12:49:55.539Z,100988.53
2023-08-22T12:52:21.960Z,100988.75
2023-08-22T12:54:48.356Z,100979.91
2023-08-22T12:57:14.727Z,100981.31
2023-08-22T12:59:41.095Z,100989.56
2023-08-22T13:02:07.575Z,100984.72
2023-08-22T13:04:34.201Z,100985.38
2023-08-22T13:07:00.629Z,100973.47
2023-08-22T13:09:27.044Z,100984.91
2023-08-22T13:11:53.431Z,100988.34
2023-08-22T13:14:19.819Z,100987.53
2023-08-22T13:16:46.280Z,100988.75
2023-08-22T13:19:12.664Z,100986.88
2023-08-22T13:21:39.029Z,100978.56
2023-08-22T13:24:05.676Z,100980.22
2023-08-22T13:26:32.045Z,100975.50
2023-08-22T13:28:58.405Z,100984.25
2023-08-22T13:31:24.839Z,100987.75
2023-08-22T13:33:51.243Z,100983.44
2023-08-22T13:36:17.719Z,100985.44
2023-08-22T13:38:44.096Z,100983.47
2023-08-22T13:41:10.434Z,100985.78
2023-08-22T13:43:36.800Z,100983.81
2023-08-22T13:46:03.203Z,100980.28
2023-08-22T13:48:29.600Z,100990.63
2023-08-22T13:50:56.000Z,100975.47
2023-08-22T13:53:22.430Z,100976.69
2023-08-22T13:55:48.881Z,100973.13
2023-08-22T13:58:15.258Z,100988.25
2023-08-22T14:00:41.627Z,100996.97
2023-08-22T14:03:08.043Z,100982.66
2023-08-22T14:05:34.444Z,100985.84
2023-08-22T14:08:00.877Z,100985.00
2023-08-22T14:10:27.356Z,100978.13
2023-08-22T14:12:53.895Z,100971.34
2023-08-22T14:15:20.282Z,100978.25
2023-08-22T14:17:46.899Z,100982.00
2023-08-22T14:20:13.420Z,100969.75
2023-08-22T14:22:41.648Z,100973.00
2023-08-22T14:25:08.399Z,100977.09
2023-08-22T14:27:34.768Z,100978.69
2023-08-22T14:30:01.133Z,100970.72
2023-08-22T14:32:27.510Z,100974.72
2023-08-22T14:34:53.914Z,100986.25
2023-08-22T14:37:23.566Z,100992.22
2023-08-22T14:39:50.414Z,100980.28
2023-08-22T14:42:16.788Z,100977.88
2023-08-22T14:44:43.176Z,100975.50
2023-08-22T14:47:09.523Z,100973.50
2023-08-22T14:49:35.985Z,100977.88
2023-08-22T14:52:02.345Z,100982.28
2023-08-22T14:54:28.734Z,100992.22
2023-08-22T14:56:55.113Z,100991.38
2023-08-22T14:59:21.468Z,100969.81
2023-08-22T15:01:47.863Z,100961.53
2023-08-22T15:04:14.295Z,100969.88
2023-08-22T15:06:40.678Z,100965.56
2023-08-22T15:09:06.999Z,100960.75
2023-08-22T15:11:33.336Z,100967.53
2023-08-22T15:13:59.668Z,100972.28
2023-08-22T15:16:25.998Z,100974.59
2023-08-22T15:18:52.313Z,100968.22
2023-08-22T15:21:18.659Z,100979.44
2023-08-22T15:23:44.991Z,100979.47
2023-08-22T15:26:11.400Z,100965.53
2023-08-22T15:28:37.769Z,100964.34
2023-08-22T15:31:04.138Z,100959.16
2023-08-22T15:33:30.602Z,100966.75
2023-08-22T15:36:00.274Z,100950.78
2023-08-22T15:38:35.674Z,100954.63
2023-08-22T15:41:03.404Z,100951.81
2023-08-22T15:43:31.307Z,100949.44
2023-08-22T15:45:57.657Z,100952.19
2023-08-22T15:48:24.082Z,100956.84
2023-08-22T15:50:50.442Z,100960.47
2023-08-22T15:53:16.853Z,100961.63
2023-08-22T15:55:43.213Z,100951.47
2023-08-22T15:58:09.592Z,100963.13
2023-08-22T16:00:36.009Z,100957.19
2023-08-22T16:03:02.470Z,100951.63
2023-08-22T16:05:28.900Z,100950.03
2023-08-22T16:07:55.293Z,100947.63
2023-08-22T16:10:21.785Z,100949.19
2023-08-22T16:12:48.149Z,100951.06
2023-08-22T16:15:14.505Z,100954.16
2023-08-22T16:17:40.873Z,100958.31
2023-08-22T16:20:07.959Z,100956.72
2023-08-22T16:22:34.333Z,100960.56
2023-08-22T16:25:00.693Z,100960.84
2023-08-22T16:27:37.000Z,100953.00
2023-08-22T16:30:07.455Z,100947.78
2023-08-22T16:32:33.895Z,100943.38
2023-08-22T16:35:00.256Z,100947.41
2023-08-22T16:37:26.621Z,100951.78
2023-08-22T16:39:52.970Z,100952.56
2023-08-22T16:42:19.362Z,100957.78
2023-08-22T16:44:45.711Z,100954.25
2023-08-22T16:47:12.099Z,100948.31
2023-08-22T16:49:38.451Z,100947.28
2023-08-22T16:52:05.148Z,100952.25
2023-08-22T16:54:31.492Z,100954.66
2023-08-22T16:56:57.958Z,100950.63
2023-08-22T16:59:24.345Z,100944.38
2023-08-22T17:01:51.045Z,100950.75
2023-08-22T17:04:17.450Z,100945.47
2023-08-22T17:06:43.828Z,100942.34
2023-08-22T17:09:10.176Z,100936.97
2023-08-22T17:11:36.588Z,100938.53
2023-08-22T17:14:03.006Z,100943.16
2023-08-22T17:16:29.471Z,100943.97
2023-08-22T17:18:55.948Z,100943.97
2023-08-22T17:21:22.574Z,100940.03
2023-08-22T17:23:48.969Z,100944.59
2023-08-22T17:26:15.328Z,100948.09
2023-08-22T17:28:41.727Z,100945.25
2023-08-22T17:31:09.200Z,100937.81
2023-08-22T17:33:37.285Z,100939.44
2023-08-22T17:36:05.453Z,100944.56
2023-08-22T17:38:31.942Z,100946.50
2023-08-22T17:41:08.599Z,100946.22
2023-08-22T17:43:36.175Z,100940.94
2023-08-22T17:46:03.365Z,100936.66
2023-08-22T17:48:30.356Z,100939.22
2023-08-22T17:50:57.930Z,100935.63
2023-08-22T17:53:24.960Z,100941.00
2023-08-22T17:55:52.116Z,100933.06
2023-08-22T17:58:22.621Z,100938.13
2023-08-22T18:00:50.026Z,100945.91
2023-08-22T18:03:17.011Z,100939.88
2023-08-22T18:06:02.556Z,100944.22
2023-08-22T18:08:29.445Z,100943.72
2023-08-22T18:10:56.782Z,100945.13
2023-08-22T18:13:24.413Z,100941.06
2023-08-22T18:18:30.889Z,100945.31
2023-08-22T18:21:04.914Z,100942.97
2023-08-22T18:23:31.374Z,100942.34
2023-08-22T18:26:03.066Z,100943.91
2023-08-22T18:28:32.317Z,100951.09
2023-08-22T18:31:10.743Z,100952.75
2023-08-22T18:33:37.508Z,100953.38
2023-08-22T18:36:04.029Z,100953.91
2023-08-22T18:38:30.435Z,100954.19
2023-08-22T18:40:58.344Z,100959.63
2023-08-22T18:43:24.739Z,100956.97
2023-08-22T18:45:51.130Z,100963.03
2023-08-22T18:48:17.518Z,100961.72
2023-08-22T18:50:44.456Z,100968.53
2023-08-22T18:53:11.984Z,100975.75
2023-08-22T18:55:38.336Z,100969.34
2023-08-22T18:58:04.760Z,100978.56
2023-08-22T19:00:31.142Z,100974.16
2023-08-22T19:02:58.309Z,100977.84
2023-08-22T19:05:24.954Z,100976.97
2023-08-22T19:07:51.316Z,100983.09
2023-08-22T19:10:17.670Z,100978.53
2023-08-22T19:12:44.051Z,100980.81
2023-08-22T19:15:10.621Z,100982.13
2023-08-22T19:17:37.070Z,100982.38
2023-08-22T19:20:03.695Z,100990.53
2023-08-22T19:22:30.106Z,100985.31
2023-08-22T19:24:56.531Z,100991.72
2023-08-22T19:27:22.900Z,100989.66
2023-08-22T19:29:49.416Z,100997.47
2023-08-22T19:32:23.854Z,100996.44
2023-08-22T19:35:02.098Z,100998.16
2023-08-22T19:37:28.434Z,100999.53
2023-08-22T19:39:54.805Z,100999.53
2023-08-22T19:42:21.182Z,101000.22
2023-08-22T19:44:47.540Z,101001.25
2023-08-22T19:47:13.910Z,100998.50
2023-08-22T19:49:40.268Z,101005.50
2023-08-22T19:52:06.662Z,101009.84
2023-08-22T19:54:33.029Z,101011.69
2023-08-22T19:56:59.415Z,101003.28
2023-08-22T19:59:25.789Z,101004.56
2023-08-22T20:01:52.158Z,101011.44
2023-08-22T20:04:18.544Z,101011.06
2023-08-22T20:06:44.920Z,101016.25
2023-08-22T20:09:14.847Z,101009.56
2023-08-22T20:11:42.539Z,101007.28
2023-08-22T20:14:09.797Z,101002.22
2023-08-22T20:16:36.732Z,101004.31
2023-08-22T20:19:03.377Z,101008.41
2023-08-22T20:21:29.859Z,101005.22
2023-08-22T20:23:56.456Z,101009.56
2023-08-22T20:26:23.437Z,101019.81
2023-08-22T20:28:50.223Z,101008.56
2023-08-22T20:31:17.414Z,101011.97
2023-08-22T20:33:44.445Z,101012.91
2023-08-22T20:36:11.244Z,101012.22
2023-08-22T20:38:38.370Z,101007.97
2023-08-22T20:41:04.762Z,101013.53
2023-08-22T20:43:31.123Z,101011.47
2023-08-22T20:46:00.656Z,101009.31
2023-08-22T20:48:27.111Z,101011.44
2023-08-22T20:50:53.528Z,101017.06
2023-08-22T20:53:19.907Z,101013.94
2023-08-22T20:55:48.690Z,101015.94
2023-08-22T20:58:15.029Z,101013.41
2023-08-22T21:00:41.429Z,101011.06
2023-08-22T21:03:07.828Z,101010.84
2023-08-22T21:05:37.443Z,101009.75
2023-08-22T21:08:05.049Z,101006.22
2023-08-22T21:10:32.065Z,101014.22
2023-08-22T21:12:58.475Z,101009.66
2023-08-22T21:15:24.862Z,101001.38
2023-08-22T21:17:52.010Z,101004.06
2023-08-22T21:20:18.414Z,101012.44
2023-08-22T21:22:45.260Z,101010.00
2023-08-22T21:25:12.057Z,101007.59
2023-08-22T21:27:38.429Z,101006.81
2023-08-22T21:30:05.291Z,101012.09
2023-08-22T21:32:31.779Z,101011.81
2023-08-22T21:34:58.250Z,101011.50
2023-08-22T21:37:24.607Z,101011.72
2023-08-22T21:39:51.102Z,101012.66
2023-08-22T21:42:17.481Z,101017.88
2023-08-22T21:44:44.209Z,101009.81
2023-08-22T21:47:10.892Z,101014.03
2023-08-22T21:49:37.238Z,101009.22
2023-08-22T21:52:03.834Z,101014.91
2023-08-22T21:54:30.184Z,101011.91
2023-08-22T21:56:56.587Z,101008.31
2023-08-22T21:59:23.051Z,101013.22
2023-08-22T22:01:49.533Z,101007.38
2023-08-22T22:04:15.902Z,101008.69
2023-08-22T22:06:42.279Z,101005.94
2023-08-22T22:09:08.667Z,101013.38
2023-08-22T22:11:35.021Z,101007.56
2023-08-22T22:14:01.417Z,101009.84
2023-08-22T22:16:34.596Z,101017.09
2023-08-22T22:19:09.849Z,101017.59
2023-08-22T22:21:36.314Z,101026.47
2023-08-22T22:24:04.839Z,101021.78
2023-08-22T22:26:31.171Z,101022.44
2023-08-22T22:28:57.540Z,101014.50
2023-08-22T22:31:23.932Z,101018.69
2023-08-22T22:33:50.315Z,101026.47
2023-08-22T22:36:16.682Z,101021.16
2023-08-22T22:38:43.044Z,101017.25
2023-08-22T22:41:09.467Z,101012.44
2023-08-22T22:43:36.030Z,101017.13
2023-08-22T22:46:02.767Z,101011.34
2023-08-22T22:48:29.275Z,101009.88
2023-08-22T22:50:55.959Z,101015.53
2023-08-22T22:53:22.457Z,101007.28
2023-08-22T22:55:48.840Z,101011.00
2023-08-22T22:58:15.257Z,101022.44
2023-08-22T23:00:41.695Z,101023.91
2023-08-22T23:03:08.211Z,101023.09
2023-08-22T23:05:34.741Z,101017.28
2023-08-22T23:08:01.145Z,101013.88
2023-08-22T23:10:27.552Z,101020.00
2023-08-22T23:12:54.522Z,101015.03
2023-08-22T23:15:21.027Z,101016.97
2023-08-22T23:17:47.894Z,101018.56
2023-08-22T23:20:16.040Z,101018.91
2023-08-22T23:22:44.110Z,101016.31
2023-08-22T23:25:10.714Z,101019.06
2023-08-22T23:27:37.669Z,101018.25
2023-08-22T23:30:06.656Z,101018.88
2023-08-22T23:32:33.444Z,101015.47
2023-08-22T23:35:02.297Z,101025.63
2023-08-22T23:37:28.698Z,101021.09
2023-08-22T23:39:55.824Z,101022.56
2023-08-22T23:42:22.248Z,101020.47
2023-08-22T23:44:49.624Z,101018.84
2023-08-22T23:47:17.402Z,101020.56
2023-08-22T23:49:44.463Z,101006.28
2023-08-22T23:52:11.331Z,101012.91
2023-08-22T23:54:38.000Z,101012.41
2023-08-22T23:57:05.400Z,101016.41
2023-08-22T23:59:33.260Z,101010.88
